Riviere-Saint-Jean, Canada
Current Conditions -  °F | °C
As of 10:00 AM on Monday 24 Nov 2014 (Local Time) from CYGV Reporting Station
Overcast Overcast  
Wind Chill: -12°   Ceiling: 3300
Heat Index: -5°   Visibility: 9mi
Dew Point: -8°   Wind: 13mph
Humidity: 80%   Direction: 70°ENE
Pressure: 30.14"   Gusts: 18mph
Location:  50.28°N, 64.33°W
Report Text: CYGV 241500Z AUTO 07011G16KT 9SM OVC033 M05/M08 A3014 RMK PRESFR SLP210
Loading
Personal Weather Stations






























Interactive Weather Map New forecast layout! Learn more

10-Day Weather Forecast

Advertisements
Track Severe Weather on mobile